Time;durP1;ratioP1;P1;durP2;ratioP2;P2;SDS_P1;SDS_P2;PMS_P1;PMS_P2;Temp;Humidity;BMP_temperature;BMP_pressure;BME280_temperature;BME280_humidity;BME280_pressure;Samples;Min_cycle;Max_cycle;Signal;HPM_P1;HPM_P2
2022/10/19 00:01:27;;;;;;;;;;;;;;;;;;5013428;28;20319;-75
2022/10/19 00:03:54;;;;;;;;;;;;;;;;;;5028341;28;19925;-76
2022/10/19 00:06:24;;;;;;;;;;;;;;;;;;5033348;28;19929;-75
2022/10/19 00:08:51;;;;;;;;;;;;;;;;;;5032783;28;20341;-76
2022/10/19 00:11:17;;;;;;;;;;;;;;;;;;5032961;28;19931;-75
2022/10/19 00:13:44;;;;;;;;;;;;;;;;;;5032830;28;20020;-75
2022/10/19 00:16:12;;;;;;;;;;;;;;;;;;5032684;28;20123;-76
2022/10/19 00:18:39;;;;;;;;;;;;;;;;;;5033087;28;20020;-76
2022/10/19 00:21:07;;;;;;;;;;;;;;;;;;5032861;28;19931;-75
2022/10/19 00:23:33;;;;;;;;;;;;;;;;;;5032790;28;19925;-75
2022/10/19 00:26:00;;;;;;;;;;;;;;;;;;5032907;28;20009;-75
2022/10/19 00:28:26;;;;;;;;;;;;;;;;;;5032875;28;20020;-75
2022/10/19 00:30:53;;;;;;;;;;;;;;;;;;5032674;28;19925;-75
2022/10/19 00:33:21;;;;;;;;;;;;;;;;;;5032481;28;20008;-76
2022/10/19 00:35:48;;;;;;;;;;;;;;;;;;5032520;28;19968;-76
2022/10/19 00:38:15;;;;;;;;;;;;;;;;;;5032507;28;20385;-75
2022/10/19 00:40:41;;;;;;;;;;;;;;;;;;5032471;28;20022;-75
2022/10/19 00:43:12;;;;;;;;;;;;;;;;;;5032388;28;20367;-76
2022/10/19 00:45:39;;;;;;;;;;;;;;;;;;5032759;28;20016;-75
2022/10/19 00:48:05;;;;;;;;;;;;;;;;;;5032487;28;19925;-76
2022/10/19 00:50:33;;;;;;;;;;;;;;;;;;5032527;28;20344;-75
2022/10/19 00:52:59;;;;;;;;;;;;;;;;;;5031937;28;20300;-75
2022/10/19 00:55:26;;;;;;;;;;;;;;;;;;5032239;28;20444;-75
2022/10/19 00:57:53;;;;;;;;;;;;;;;;;;5032398;28;20031;-76
2022/10/19 01:00:20;;;;;;;;;;;;;;;;;;5032197;28;20381;-76
2022/10/19 01:02:46;;;;;;;;;;;;;;;;;;5025833;28;20415;-75
2022/10/19 01:05:13;;;;;;;;;;;;;;;;;;5012454;28;20381;-75
2022/10/19 01:07:41;;;;;;;;;;;;;;;;;;5012557;28;19960;-75
2022/10/19 01:10:08;;;;;;;;;;;;;;;;;;5012323;28;20029;-75
2022/10/19 01:12:51;;;;;;;;;;;;;;;;;;5012326;28;19926;-75
2022/10/19 01:15:21;;;;;;;;;;;;;;;;;;5012558;28;19926;-75
2022/10/19 01:17:51;;;;;;;;;;;;;;;;;;5012626;28;19925;-75
2022/10/19 01:20:39;;;;;;;;;;;;;;;;;;5012649;28;19948;-75
2022/10/19 01:23:20;;;;;;;;;;;;;;;;;;5012538;28;19976;-75
2022/10/19 01:25:52;;;;;;;;;;;;;;;;;;5012487;28;19926;-75
2022/10/19 01:28:25;;;;;;;;;;;;;;;;;;5012419;28;20401;-75
2022/10/19 01:30:57;;;;;;;;;;;;;;;;;;5016244;28;19929;-75
2022/10/19 01:33:30;;;;;;;;;;;;;;;;;;5016264;28;20368;-75
2022/10/19 01:36:00;;;;;;;;;;;;;;;;;;5016652;28;20020;-76
2022/10/19 01:38:33;;;;;;;;;;;;;;;;;;5016402;28;19925;-75
2022/10/19 01:41:06;;;;;;;;;;;;;;;;;;5016632;28;20015;-75
2022/10/19 01:43:37;;;;;;;;;;;;;;;;;;5024387;28;19983;-74
2022/10/19 01:46:07;;;;;;;;;;;;;;;;;;5035396;28;19933;-75
2022/10/19 01:48:35;;;;;;;;;;;;;;;;;;5024982;28;19965;-75
2022/10/19 01:51:03;;;;;;;;;;;;;;;;;;5023106;28;19991;-75
2022/10/19 01:53:31;;;;;;;;;;;;;;;;;;5017392;28;20023;-77
2022/10/19 01:55:58;;;;;;;;;;;;;;;;;;5015692;28;20025;-76
2022/10/19 01:58:27;;;;;;;;;;;;;;;;;;5015771;28;19925;-77
2022/10/19 02:00:55;;;;;;;;;;;;;;;;;;5015727;28;20020;-76
2022/10/19 02:03:24;;;;;;;;;;;;;;;;;;5015552;28;19936;-76
2022/10/19 02:05:52;;;;;;;;;;;;;;;;;;5015673;28;20016;-77
2022/10/19 02:08:21;;;;;;;;;;;;;;;;;;5015215;28;20012;-76
2022/10/19 02:10:48;;;;;;;;;;;;;;;;;;5015777;28;19925;-76
2022/10/19 02:13:15;;;;;;;;;;;;;;;;;;5015253;28;19932;-76
2022/10/19 02:15:44;;;;;;;;;;;;;;;;;;5015359;28;20024;-76
2022/10/19 02:18:12;;;;;;;;;;;;;;;;;;5015467;28;19925;-76
2022/10/19 02:20:40;;;;;;;;;;;;;;;;;;5015273;28;19925;-76
2022/10/19 02:23:07;;;;;;;;;;;;;;;;;;5014820;28;20381;-76
2022/10/19 02:25:33;;;;;;;;;;;;;;;;;;5015381;28;19965;-76
2022/10/19 02:28:00;;;;;;;;;;;;;;;;;;5014866;28;20448;-76
2022/10/19 02:30:27;;;;;;;;;;;;;;;;;;5015194;28;20020;-76
2022/10/19 02:32:54;;;;;;;;;;;;;;;;;;5014703;28;19925;-76
2022/10/19 02:35:21;;;;;;;;;;;;;;;;;;5015109;28;20008;-76
2022/10/19 02:37:49;;;;;;;;;;;;;;;;;;5014920;28;20008;-76
2022/10/19 02:40:15;;;;;;;;;;;;;;;;;;5014724;28;20020;-76
2022/10/19 02:42:44;;;;;;;;;;;;;;;;;;5014793;28;19929;-76
2022/10/19 02:45:13;;;;;;;;;;;;;;;;;;5015056;28;20008;-76
2022/10/19 02:47:41;;;;;;;;;;;;;;;;;;5014457;28;20373;-76
2022/10/19 02:50:09;;;;;;;;;;;;;;;;;;5015320;28;20016;-75
2022/10/19 02:52:36;;;;;;;;;;;;;;;;;;5016142;28;19925;-76
2022/10/19 02:55:05;;;;;;;;;;;;;;;;;;5014874;28;19935;-76
2022/10/19 02:57:31;;;;;;;;;;;;;;;;;;5014493;28;20008;-77
2022/10/19 02:59:58;;;;;;;;;;;;;;;;;;5014648;28;20397;-77
2022/10/19 03:02:25;;;;;;;;;;;;;;;;;;5014239;28;19937;-77
2022/10/19 03:04:51;;;;;;;;;;;;;;;;;;5014759;28;20020;-77
2022/10/19 03:07:19;;;;;;;;;;;;;;;;;;5014578;28;20021;-77
2022/10/19 03:09:45;;;;;;;;;;;;;;;;;;5014398;28;20016;-77
2022/10/19 03:12:13;;;;;;;;;;;;;;;;;;5014443;28;19925;-77
2022/10/19 03:14:40;;;;;;;;;;;;;;;;;;5014070;28;20385;-77
2022/10/19 03:17:06;;;;;;;;;;;;;;;;;;5014096;28;20036;-76
2022/10/19 03:19:34;;;;;;;;;;;;;;;;;;5014188;28;19926;-77
2022/10/19 03:22:00;;;;;;;;;;;;;;;;;;5014283;28;20020;-77
2022/10/19 03:24:27;;;;;;;;;;;;;;;;;;5014063;28;19929;-77
2022/10/19 03:26:53;;;;;;;;;;;;;;;;;;5014234;28;19926;-77
2022/10/19 03:29:21;;;;;;;;;;;;;;;;;;5013930;28;20359;-77
2022/10/19 03:31:48;;;;;;;;;;;;;;;;;;5014234;28;19932;-77
2022/10/19 03:34:14;;;;;;;;;;;;;;;;;;5013889;28;20016;-77
2022/10/19 03:36:41;;;;;;;;;;;;;;;;;;5014301;28;20015;-77
2022/10/19 03:39:10;;;;;;;;;;;;;;;;;;5013924;28;19925;-77
2022/10/19 03:41:37;;;;;;;;;;;;;;;;;;5013754;28;20349;-77
2022/10/19 03:44:03;;;;;;;;;;;;;;;;;;5013502;28;19933;-77
2022/10/19 03:46:31;;;;;;;;;;;;;;;;;;5014133;28;20036;-77
2022/10/19 03:48:58;;;;;;;;;;;;;;;;;;5013835;28;20016;-77
2022/10/19 03:51:25;;;;;;;;;;;;;;;;;;5013028;28;19926;-77
2022/10/19 03:53:52;;;;;;;;;;;;;;;;;;5020980;28;20430;-76
2022/10/19 03:56:21;;;;;;;;;;;;;;;;;;5021965;28;20442;-76
2022/10/19 03:58:48;;;;;;;;;;;;;;;;;;5018727;28;19929;-76
2022/10/19 04:01:16;;;;;;;;;;;;;;;;;;5014023;28;19926;-76
2022/10/19 04:03:44;;;;;;;;;;;;;;;;;;5013355;28;19968;-76
2022/10/19 04:06:12;;;;;;;;;;;;;;;;;;5013791;28;19925;-76
2022/10/19 04:08:39;;;;;;;;;;;;;;;;;;5013474;28;19925;-75
2022/10/19 04:11:06;;;;;;;;;;;;;;;;;;5013279;28;19925;-76
2022/10/19 04:13:33;;;;;;;;;;;;;;;;;;5013230;28;19925;-77
2022/10/19 04:16:00;;;;;;;;;;;;;;;;;;5013595;28;20016;-77
2022/10/19 04:18:26;;;;;;;;;;;;;;;;;;5012929;28;19925;-76
2022/10/19 04:20:57;;;;;;;;;;;;;;;;;;5013379;28;19925;-77
2022/10/19 04:23:24;;;;;;;;;;;;;;;;;;5012995;28;20028;-77
2022/10/19 04:25:50;;;;;;;;;;;;;;;;;;5013826;28;19976;-77
2022/10/19 04:28:17;;;;;;;;;;;;;;;;;;5013623;28;20032;-77
2022/10/19 04:30:43;;;;;;;;;;;;;;;;;;5013862;28;19932;-77
2022/10/19 04:33:10;;;;;;;;;;;;;;;;;;5013076;28;19972;-76
2022/10/19 04:35:36;;;;;;;;;;;;;;;;;;5013403;28;19972;-77
2022/10/19 04:38:04;;;;;;;;;;;;;;;;;;5012938;28;19969;-77
2022/10/19 04:40:30;;;;;;;;;;;;;;;;;;5013239;28;19948;-77
2022/10/19 04:42:57;;;;;;;;;;;;;;;;;;5012722;28;19971;-77
2022/10/19 04:45:24;;;;;;;;;;;;;;;;;;5013352;28;19965;-77
2022/10/19 04:47:50;;;;;;;;;;;;;;;;;;5013011;28;19925;-77
2022/10/19 04:50:17;;;;;;;;;;;;;;;;;;5013531;28;19960;-78
2022/10/19 04:52:44;;;;;;;;;;;;;;;;;;5013322;28;20008;-78
2022/10/19 04:55:11;;;;;;;;;;;;;;;;;;5014103;28;20016;-77
2022/10/19 04:57:38;;;;;;;;;;;;;;;;;;5013375;28;20369;-77
2022/10/19 05:00:05;;;;;;;;;;;;;;;;;;5013734;28;19936;-78
2022/10/19 05:02:32;;;;;;;;;;;;;;;;;;5017721;28;19947;-77
2022/10/19 05:04:58;;;;;;;;;;;;;;;;;;5032601;28;19925;-77
2022/10/19 05:07:24;;;;;;;;;;;;;;;;;;5032383;28;20380;-77
2022/10/19 05:09:51;;;;;;;;;;;;;;;;;;5026348;28;19972;-76
2022/10/19 05:12:19;;;;;;;;;;;;;;;;;;5012634;28;20397;-76
2022/10/19 05:14:45;;;;;;;;;;;;;;;;;;5012303;28;20016;-75
2022/10/19 05:17:12;;;;;;;;;;;;;;;;;;5012383;28;20016;-75
2022/10/19 05:19:38;;;;;;;;;;;;;;;;;;5012274;28;19926;-76
2022/10/19 05:22:05;;;;;;;;;;;;;;;;;;5012557;28;19940;-75
2022/10/19 05:24:32;;;;;;;;;;;;;;;;;;5012388;28;20032;-75
2022/10/19 05:26:58;;;;;;;;;;;;;;;;;;5012187;28;19925;-76
2022/10/19 05:29:27;;;;;;;;;;;;;;;;;;5012148;28;19933;-76
2022/10/19 05:31:53;;;;;;;;;;;;;;;;;;5012556;28;19926;-76
2022/10/19 05:34:20;;;;;;;;;;;;;;;;;;5030507;28;20600;-76
2022/10/19 05:36:46;;;;;;;;;;;;;;;;;;5032495;28;20509;-77
2022/10/19 05:39:14;;;;;;;;;;;;;;;;;;5031888;28;20311;-76
2022/10/19 05:41:42;;;;;;;;;;;;;;;;;;5032043;28;20310;-76
2022/10/19 05:44:12;;;;;;;;;;;;;;;;;;5031748;28;20303;-77
2022/10/19 05:46:39;;;;;;;;;;;;;;;;;;5031900;28;20395;-76
2022/10/19 05:49:06;;;;;;;;;;;;;;;;;;5031745;28;20400;-76
2022/10/19 05:51:32;;;;;;;;;;;;;;;;;;5031975;28;19987;-77
2022/10/19 05:53:59;;;;;;;;;;;;;;;;;;5031906;28;19925;-77
2022/10/19 05:56:27;;;;;;;;;;;;;;;;;;5031824;28;20012;-76
2022/10/19 05:58:54;;;;;;;;;;;;;;;;;;5031689;28;19925;-77
2022/10/19 06:01:21;;;;;;;;;;;;;;;;;;5031741;28;19931;-77
2022/10/19 06:04:13;;;;;;;;;;;;;;;;;;5022576;28;19977;-77
2022/10/19 06:06:41;;;;;;;;;;;;;;;;;;5012408;28;19932;-77
2022/10/19 06:09:08;;;;;;;;;;;;;;;;;;5023680;28;20020;-76
2022/10/19 06:11:37;;;;;;;;;;;;;;;;;;5021753;28;20161;-77
2022/10/19 06:14:05;;;;;;;;;;;;;;;;;;5026362;28;19975;-76
2022/10/19 06:16:32;;;;;;;;;;;;;;;;;;5035531;28;19925;-77
2022/10/19 06:18:59;;;;;;;;;;;;;;;;;;5035588;28;20012;-77
2022/10/19 06:21:26;;;;;;;;;;;;;;;;;;5035203;28;20013;-77
2022/10/19 06:23:55;;;;;;;;;;;;;;;;;;5034960;28;19932;-76
2022/10/19 06:26:22;;;;;;;;;;;;;;;;;;5035075;28;19925;-77
2022/10/19 06:28:48;;;;;;;;;;;;;;;;;;5035099;28;19925;-77
2022/10/19 06:31:15;;;;;;;;;;;;;;;;;;5034278;28;20016;-77
2022/10/19 06:33:42;;;;;;;;;;;;;;;;;;5034734;28;19931;-77
2022/10/19 06:36:10;;;;;;;;;;;;;;;;;;5035069;28;19925;-76
2022/10/19 06:38:36;;;;;;;;;;;;;;;;;;5043915;28;20020;-76
2022/10/19 06:41:04;;;;;;;;;;;;;;;;;;5041454;28;19981;-75
2022/10/19 06:43:31;;;;;;;;;;;;;;;;;;5039386;28;19929;-76
2022/10/19 06:45:57;;;;;;;;;;;;;;;;;;5037775;28;19932;-76
2022/10/19 06:48:24;;;;;;;;;;;;;;;;;;5026488;28;20345;-77
2022/10/19 06:50:55;;;;;;;;;;;;;;;;;;5016004;28;19925;-76
2022/10/19 06:53:22;;;;;;;;;;;;;;;;;;5015568;28;19964;-76
2022/10/19 06:55:48;;;;;;;;;;;;;;;;;;5015950;28;19972;-76
2022/10/19 06:58:16;;;;;;;;;;;;;;;;;;5015493;28;20012;-76
2022/10/19 07:00:43;;;;;;;;;;;;;;;;;;5019269;28;19929;-76
2022/10/19 07:03:09;;;;;;;;;;;;;;;;;;5026574;28;19925;-76
2022/10/19 07:05:36;;;;;;;;;;;;;;;;;;5023252;28;20020;-76
2022/10/19 07:08:02;;;;;;;;;;;;;;;;;;5011542;28;20402;-74
2022/10/19 07:10:29;;;;;;;;;;;;;;;;;;5013963;28;19929;-75
2022/10/19 07:12:55;;;;;;;;;;;;;;;;;;5013457;28;20519;-76
2022/10/19 07:15:23;;;;;;;;;;;;;;;;;;5013064;28;20028;-76
2022/10/19 07:17:50;;;;;;;;;;;;;;;;;;5013245;28;19968;-76
2022/10/19 07:20:16;;;;;;;;;;;;;;;;;;5012935;28;19973;-76
2022/10/19 07:22:43;;;;;;;;;;;;;;;;;;5012469;28;19979;-76
2022/10/19 07:25:09;;;;;;;;;;;;;;;;;;5012960;28;20028;-75
2022/10/19 07:27:38;;;;;;;;;;;;;;;;;;5011537;28;19976;-76
2022/10/19 07:30:05;;;;;;;;;;;;;;;;;;5013222;28;19926;-75
2022/10/19 07:32:33;;;;;;;;;;;;;;;;;;5013417;28;20543;-79
2022/10/19 07:34:59;;;;;;;;;;;;;;;;;;5015673;28;20017;-77
2022/10/19 07:37:26;;;;;;;;;;;;;;;;;;5015439;28;19951;-80
2022/10/19 07:39:52;;;;;;;;;;;;;;;;;;5014040;28;20024;-76
2022/10/19 07:42:19;;;;;;;;;;;;;;;;;;5013237;28;19967;-76
2022/10/19 07:44:45;;;;;;;;;;;;;;;;;;5012290;28;19932;-78
2022/10/19 07:47:12;;;;;;;;;;;;;;;;;;5012489;28;19964;-77
2022/10/19 07:49:39;;;;;;;;;;;;;;;;;;5012388;28;20004;-77
2022/10/19 07:52:06;;;;;;;;;;;;;;;;;;5012571;28;20020;-77
2022/10/19 07:54:32;;;;;;;;;;;;;;;;;;5012300;28;19984;-77
2022/10/19 07:56:59;;;;;;;;;;;;;;;;;;5012249;28;20020;-77
2022/10/19 07:59:25;;;;;;;;;;;;;;;;;;5011811;28;19926;-77
2022/10/19 08:01:53;;;;;;;;;;;;;;;;;;5012335;28;20016;-77
2022/10/19 08:04:19;;;;;;;;;;;;;;;;;;5030535;28;20024;-77
2022/10/19 08:06:47;;;;;;;;;;;;;;;;;;5032499;28;19979;-80
2022/10/19 08:09:14;;;;;;;;;;;;;;;;;;5031434;28;20013;-76
2022/10/19 08:11:40;;;;;;;;;;;;;;;;;;5031462;28;20016;-77
2022/10/19 08:14:07;;;;;;;;;;;;;;;;;;5031542;28;19936;-78
2022/10/19 08:16:36;;;;;;;;;;;;;;;;;;5031333;28;19972;-77
2022/10/19 08:19:03;;;;;;;;;;;;;;;;;;5031137;28;19925;-77
2022/10/19 08:21:30;;;;;;;;;;;;;;;;;;5031553;28;20277;-77
2022/10/19 08:23:58;;;;;;;;;;;;;;;;;;5031311;28;20419;-77
2022/10/19 08:26:25;;;;;;;;;;;;;;;;;;5031011;28;20438;-76
2022/10/19 08:28:51;;;;;;;;;;;;;;;;;;5030722;28;19932;-77
2022/10/19 08:31:19;;;;;;;;;;;;;;;;;;5030587;28;19929;-77
2022/10/19 08:33:45;;;;;;;;;;;;;;;;;;5030561;28;20028;-76
2022/10/19 08:36:13;;;;;;;;;;;;;;;;;;5030993;28;19925;-76
2022/10/19 08:38:40;;;;;;;;;;;;;;;;;;5030479;28;19968;-76
2022/10/19 08:41:15;;;;;;;;;;;;;;;;;;5031082;28;20340;-76
2022/10/19 08:43:44;;;;;;;;;;;;;;;;;;5030877;28;19971;-77
2022/10/19 08:46:18;;;;;;;;;;;;;;;;;;5031038;28;20004;-77
2022/10/19 08:48:45;;;;;;;;;;;;;;;;;;5030565;28;20011;-77
2022/10/19 08:51:12;;;;;;;;;;;;;;;;;;5030658;28;19925;-76
2022/10/19 08:53:42;;;;;;;;;;;;;;;;;;5030559;28;19987;-77
2022/10/19 08:56:15;;;;;;;;;;;;;;;;;;5032563;28;20016;-76
2022/10/19 08:58:47;;;;;;;;;;;;;;;;;;5030505;28;20307;-76
2022/10/19 09:01:16;;;;;;;;;;;;;;;;;;5031161;28;20464;-77
2022/10/19 09:03:45;;;;;;;;;;;;;;;;;;5031021;28;19948;-77
2022/10/19 09:06:19;;;;;;;;;;;;;;;;;;5031312;28;19968;-76
2022/10/19 09:08:46;;;;;;;;;;;;;;;;;;5031096;28;19925;-77
2022/10/19 09:11:15;;;;;;;;;;;;;;;;;;5030892;28;19972;-77
2022/10/19 09:13:42;;;;;;;;;;;;;;;;;;5031292;28;19971;-77
2022/10/19 09:16:11;;;;;;;;;;;;;;;;;;5031849;28;19979;-77
2022/10/19 09:18:38;;;;;;;;;;;;;;;;;;5031205;28;19937;-76
2022/10/19 09:21:07;;;;;;;;;;;;;;;;;;5030962;28;19925;-77
2022/10/19 09:23:36;;;;;;;;;;;;;;;;;;5030418;28;19968;-77
2022/10/19 09:26:04;;;;;;;;;;;;;;;;;;5031806;28;19975;-76
2022/10/19 09:28:42;;;;;;;;;;;;;;;;;;5031939;28;19985;-76
2022/10/19 09:31:12;;;;;;;;;;;;;;;;;;5032676;28;20392;-76
2022/10/19 09:33:39;;;;;;;;;;;;;;;;;;5032271;28;20406;-77
2022/10/19 09:36:07;;;;;;;;;;;;;;;;;;5031077;28;19925;-76
2022/10/19 09:38:33;;;;;;;;;;;;;;;;;;5030597;28;19932;-76
2022/10/19 09:41:05;;;;;;;;;;;;;;;;;;5030682;28;19937;-76
2022/10/19 09:43:32;;;;;;;;;;;;;;;;;;5030656;28;20467;-77
2022/10/19 09:46:04;;;;;;;;;;;;;;;;;;5030885;28;19957;-77
2022/10/19 09:48:33;;;;;;;;;;;;;;;;;;5031028;28;19925;-77
2022/10/19 09:51:00;;;;;;;;;;;;;;;;;;5033793;28;20363;-77
2022/10/19 09:53:28;;;;;;;;;;;;;;;;;;5034437;28;20016;-77
2022/10/19 09:55:58;;;;;;;;;;;;;;;;;;5034380;28;19975;-77
2022/10/19 09:58:25;;;;;;;;;;;;;;;;;;5039038;28;20360;-86
2022/10/19 10:00:53;;;;;;;;;;;;;;;;;;5039018;28;19932;-80
2022/10/19 10:03:26;;;;;;;;;;;;;;;;;;5026875;28;19929;-78
2022/10/19 10:05:52;;;;;;;;;;;;;;;;;;5017577;28;19949;-79
2022/10/19 10:08:20;;;;;;;;;;;;;;;;;;5016792;28;19925;-78
2022/10/19 10:10:48;;;;;;;;;;;;;;;;;;5017163;28;19932;-79
2022/10/19 10:13:17;;;;;;;;;;;;;;;;;;5018122;28;19933;-81
2022/10/19 10:15:44;;;;;;;;;;;;;;;;;;5019471;28;20304;-81
2022/10/19 10:18:13;;;;;;;;;;;;;;;;;;5018154;28;19952;-79
2022/10/19 10:20:55;;;;;;;;;;;;;;;;;;5017479;28;20388;-81
2022/10/19 10:23:23;;;;;;;;;;;;;;;;;;5017675;28;19925;-80
2022/10/19 10:25:50;;;;;;;;;;;;;;;;;;5016838;28;19947;-79
2022/10/19 10:28:18;;;;;;;;;;;;;;;;;;5017172;28;20032;-79
2022/10/19 10:30:45;;;;;;;;;;;;;;;;;;5016546;28;19925;-80
2022/10/19 10:33:14;;;;;;;;;;;;;;;;;;5015665;28;19933;-79
2022/10/19 10:35:47;;;;;;;;;;;;;;;;;;5016896;28;19925;-77
2022/10/19 10:38:16;;;;;;;;;;;;;;;;;;5015868;28;19929;-80
2022/10/19 10:40:50;;;;;;;;;;;;;;;;;;5016529;28;19925;-79
2022/10/19 10:43:18;;;;;;;;;;;;;;;;;;5015837;28;19926;-78
2022/10/19 10:45:46;;;;;;;;;;;;;;;;;;5016288;28;20016;-79
2022/10/19 10:48:24;;;;;;;;;;;;;;;;;;5016002;28;19933;-79
2022/10/19 10:50:52;;;;;;;;;;;;;;;;;;5015039;28;20012;-77
2022/10/19 10:53:32;;;;;;;;;;;;;;;;;;5016767;28;19958;-77
2022/10/19 10:55:58;;;;;;;;;;;;;;;;;;5019182;28;19968;-77
2022/10/19 10:58:31;;;;;;;;;;;;;;;;;;5019818;28;19964;-78
2022/10/19 11:00:59;;;;;;;;;;;;;;;;;;5021649;28;20432;-78
2022/10/19 11:03:27;;;;;;;;;;;;;;;;;;5019504;28;20020;-78
2022/10/19 11:05:57;;;;;;;;;;;;;;;;;;5020015;28;19932;-76
2022/10/19 11:08:27;;;;;;;;;;;;;;;;;;5016336;28;20025;-78
2022/10/19 11:10:57;;;;;;;;;;;;;;;;;;5016010;28;19932;-77
2022/10/19 11:13:26;;;;;;;;;;;;;;;;;;5015863;28;20016;-76
2022/10/19 11:15:53;;;;;;;;;;;;;;;;;;5017169;28;20000;-77
2022/10/19 11:18:22;;;;;;;;;;;;;;;;;;5018081;28;19957;-78
2022/10/19 11:20:53;;;;;;;;;;;;;;;;;;5019274;28;19976;-78
2022/10/19 11:23:30;;;;;;;;;;;;;;;;;;5019960;28;19926;-78
2022/10/19 11:26:03;;;;;;;;;;;;;;;;;;5019722;28;19980;-78
2022/10/19 11:28:35;;;;;;;;;;;;;;;;;;5019989;28;19929;-78
2022/10/19 11:31:07;;;;;;;;;;;;;;;;;;5015538;28;20012;-78
2022/10/19 11:33:41;;;;;;;;;;;;;;;;;;5014170;28;20341;-79
2022/10/19 11:36:11;;;;;;;;;;;;;;;;;;5014079;28;20008;-79
2022/10/19 11:38:47;;;;;;;;;;;;;;;;;;5014000;28;19972;-79
2022/10/19 11:41:20;;;;;;;;;;;;;;;;;;5013642;28;19925;-79
2022/10/19 11:43:53;;;;;;;;;;;;;;;;;;5013744;28;20006;-78
2022/10/19 11:46:23;;;;;;;;;;;;;;;;;;5014115;28;19940;-77
2022/10/19 11:49:04;;;;;;;;;;;;;;;;;;5013992;28;20053;-78
2022/10/19 11:51:34;;;;;;;;;;;;;;;;;;5013305;28;20039;-78
2022/10/19 11:54:09;;;;;;;;;;;;;;;;;;5012998;28;20004;-79
2022/10/19 11:56:39;;;;;;;;;;;;;;;;;;5014603;28;19980;-79
2022/10/19 11:59:13;;;;;;;;;;;;;;;;;;5013404;28;19926;-79
2022/10/19 12:01:43;;;;;;;;;;;;;;;;;;5012919;28;20020;-79
2022/10/19 12:04:23;;;;;;;;;;;;;;;;;;5013360;28;19973;-79
2022/10/19 12:06:53;;;;;;;;;;;;;;;;;;5013181;28;19929;-79
2022/10/19 12:09:27;;;;;;;;;;;;;;;;;;5013170;28;20004;-78
2022/10/19 12:12:02;;;;;;;;;;;;;;;;;;5014441;28;20024;-79
2022/10/19 12:14:31;;;;;;;;;;;;;;;;;;5012935;28;19964;-79
2022/10/19 12:17:00;;;;;;;;;;;;;;;;;;5013567;28;19989;-80
2022/10/19 12:19:28;;;;;;;;;;;;;;;;;;5014474;28;20016;-79
2022/10/19 12:21:58;;;;;;;;;;;;;;;;;;5013262;28;19925;-79
2022/10/19 12:24:28;;;;;;;;;;;;;;;;;;5013212;28;19932;-79
2022/10/19 12:26:54;;;;;;;;;;;;;;;;;;5013383;28;20364;-79
2022/10/19 12:29:22;;;;;;;;;;;;;;;;;;5013314;28;19925;-79
2022/10/19 12:31:50;;;;;;;;;;;;;;;;;;5012946;28;20397;-79
2022/10/19 12:34:22;;;;;;;;;;;;;;;;;;5013383;28;19977;-80
2022/10/19 12:36:55;;;;;;;;;;;;;;;;;;5012984;28;20008;-78
2022/10/19 12:39:23;;;;;;;;;;;;;;;;;;5012378;28;19932;-78
2022/10/19 12:41:55;;;;;;;;;;;;;;;;;;5012164;28;19936;-78
2022/10/19 12:44:39;;;;;;;;;;;;;;;;;;5012187;28;19976;-78
2022/10/19 12:47:09;;;;;;;;;;;;;;;;;;5013452;28;20004;-79
2022/10/19 12:49:47;;;;;;;;;;;;;;;;;;5013476;28;19940;-79
2022/10/19 12:52:16;;;;;;;;;;;;;;;;;;5013649;28;19952;-79
2022/10/19 12:54:43;;;;;;;;;;;;;;;;;;5013421;28;19992;-79
2022/10/19 12:57:23;;;;;;;;;;;;;;;;;;5014054;28;20400;-79
2022/10/19 12:59:58;;;;;;;;;;;;;;;;;;5014033;28;20028;-78
2022/10/19 13:02:27;;;;;;;;;;;;;;;;;;5013864;28;19933;-79
2022/10/19 13:04:54;;;;;;;;;;;;;;;;;;5032174;28;19936;-78
2022/10/19 13:07:20;;;;;;;;;;;;;;;;;;5031170;28;19988;-77
2022/10/19 13:09:48;;;;;;;;;;;;;;;;;;5032366;28;19961;-78
2022/10/19 13:12:29;;;;;;;;;;;;;;;;;;5032608;28;19980;-78
2022/10/19 13:14:56;;;;;;;;;;;;;;;;;;5031348;28;19926;-79
2022/10/19 13:17:39;;;;;;;;;;;;;;;;;;5030247;28;19925;-78
2022/10/19 13:20:24;;;;;;;;;;;;;;;;;;5028988;28;19926;-79
2022/10/19 13:22:51;;;;;;;;;;;;;;;;;;5028193;28;19925;-78
2022/10/19 13:25:25;;;;;;;;;;;;;;;;;;5029517;28;19933;-79
2022/10/19 13:27:54;;;;;;;;;;;;;;;;;;5026082;28;19995;-79
2022/10/19 13:30:40;;;;;;;;;;;;;;;;;;5030186;28;20008;-78
2022/10/19 13:33:23;;;;;;;;;;;;;;;;;;5034744;28;19926;-79
2022/10/19 13:36:05;;;;;;;;;;;;;;;;;;5034608;28;19921;-78
2022/10/19 13:38:32;;;;;;;;;;;;;;;;;;5036148;28;19980;-79
2022/10/19 13:41:11;;;;;;;;;;;;;;;;;;5033523;28;20040;-79
2022/10/19 13:43:40;;;;;;;;;;;;;;;;;;5035912;28;19933;-79
2022/10/19 13:46:09;;;;;;;;;;;;;;;;;;5037150;28;19932;-79
2022/10/19 13:48:38;;;;;;;;;;;;;;;;;;5035381;28;20336;-79
2022/10/19 13:51:09;;;;;;;;;;;;;;;;;;5036463;28;19921;-79
2022/10/19 13:53:40;;;;;;;;;;;;;;;;;;5034326;28;20399;-80
2022/10/19 13:56:28;;;;;;;;;;;;;;;;;;5023644;28;19926;-78
2022/10/19 13:59:21;;;;;;;;;;;;;;;;;;5018557;28;19925;-78
2022/10/19 14:01:55;;;;;;;;;;;;;;;;;;4994108;28;19925;-78
2022/10/19 14:04:26;;;;;;;;;;;;;;;;;;5036916;28;20400;-79
2022/10/19 14:06:54;;;;;;;;;;;;;;;;;;5036654;28;20476;-78
2022/10/19 14:09:32;;;;;;;;;;;;;;;;;;5037134;28;19933;-80
2022/10/19 14:12:05;;;;;;;;;;;;;;;;;;5038740;28;20507;-80
2022/10/19 14:14:38;;;;;;;;;;;;;;;;;;5040132;28;19968;-80
2022/10/19 14:17:14;;;;;;;;;;;;;;;;;;5038776;28;20012;-77
2022/10/19 14:19:42;;;;;;;;;;;;;;;;;;5035220;28;20419;-78
2022/10/19 14:22:18;;;;;;;;;;;;;;;;;;5036604;28;19925;-79
2022/10/19 14:24:44;;;;;;;;;;;;;;;;;;5036104;28;20001;-79
2022/10/19 14:27:16;;;;;;;;;;;;;;;;;;5035042;28;19925;-79
2022/10/19 14:29:44;;;;;;;;;;;;;;;;;;5035913;28;20024;-80
2022/10/19 14:32:11;;;;;;;;;;;;;;;;;;5035984;28;19936;-79
2022/10/19 14:34:40;;;;;;;;;;;;;;;;;;5035645;28;19969;-80
2022/10/19 14:37:12;;;;;;;;;;;;;;;;;;5035244;28;19925;-80
2022/10/19 14:39:39;;;;;;;;;;;;;;;;;;5035913;28;19983;-79
2022/10/19 14:42:09;;;;;;;;;;;;;;;;;;5035688;28;19965;-78
2022/10/19 14:44:38;;;;;;;;;;;;;;;;;;5034908;28;19933;-79
2022/10/19 14:47:12;;;;;;;;;;;;;;;;;;5034541;28;19925;-78
2022/10/19 14:49:38;;;;;;;;;;;;;;;;;;5034475;28;19925;-79
2022/10/19 14:52:06;;;;;;;;;;;;;;;;;;5034971;28;19949;-79
2022/10/19 14:54:35;;;;;;;;;;;;;;;;;;5035395;28;19989;-79
2022/10/19 14:57:04;;;;;;;;;;;;;;;;;;5035184;28;19941;-80
2022/10/19 14:59:32;;;;;;;;;;;;;;;;;;5018777;28;20447;-80
2022/10/19 15:02:00;;;;;;;;;;;;;;;;;;5015545;28;20005;-79
2022/10/19 15:04:29;;;;;;;;;;;;;;;;;;5034926;28;20003;-78
2022/10/19 15:06:55;;;;;;;;;;;;;;;;;;5034852;28;19926;-78
2022/10/19 15:09:25;;;;;;;;;;;;;;;;;;5033983;28;20418;-79
2022/10/19 15:11:53;;;;;;;;;;;;;;;;;;5033981;28;19935;-79
2022/10/19 15:14:21;;;;;;;;;;;;;;;;;;5034472;28;20015;-79
2022/10/19 15:16:50;;;;;;;;;;;;;;;;;;5034051;28;19925;-78
2022/10/19 15:19:19;;;;;;;;;;;;;;;;;;5034383;28;19925;-79
2022/10/19 15:21:45;;;;;;;;;;;;;;;;;;5034380;28;19988;-79
2022/10/19 15:24:21;;;;;;;;;;;;;;;;;;5034382;28;19929;-79
2022/10/19 15:26:51;;;;;;;;;;;;;;;;;;5037540;28;19971;-80
2022/10/19 15:29:22;;;;;;;;;;;;;;;;;;5034693;28;19964;-79
2022/10/19 15:31:49;;;;;;;;;;;;;;;;;;5034355;28;19925;-79
2022/10/19 15:34:20;;;;;;;;;;;;;;;;;;5033579;28;19925;-79
2022/10/19 15:36:53;;;;;;;;;;;;;;;;;;5033882;28;19925;-78
2022/10/19 15:39:21;;;;;;;;;;;;;;;;;;5034293;28;20008;-80
2022/10/19 15:41:48;;;;;;;;;;;;;;;;;;5034675;28;19968;-80
2022/10/19 15:44:29;;;;;;;;;;;;;;;;;;5033900;28;19925;-79
2022/10/19 15:47:18;;;;;;;;;;;;;;;;;;5032001;28;20020;-79
2022/10/19 15:50:00;;;;;;;;;;;;;;;;;;5014435;28;20392;-79
2022/10/19 15:52:28;;;;;;;;;;;;;;;;;;5015274;28;19931;-79
2022/10/19 15:54:55;;;;;;;;;;;;;;;;;;5015844;28;19926;-80
2022/10/19 15:57:23;;;;;;;;;;;;;;;;;;5016224;28;20334;-80
2022/10/19 15:59:49;;;;;;;;;;;;;;;;;;5015590;28;19932;-81
2022/10/19 16:02:17;;;;;;;;;;;;;;;;;;5017769;28;19964;-81
2022/10/19 16:04:43;;;;;;;;;;;;;;;;;;5036206;28;19985;-79
2022/10/19 16:07:14;;;;;;;;;;;;;;;;;;5037213;28;19924;-83
2022/10/19 16:09:41;;;;;;;;;;;;;;;;;;5037306;28;20361;-81
2022/10/19 16:12:09;;;;;;;;;;;;;;;;;;5036691;28;20012;-79
2022/10/19 16:14:35;;;;;;;;;;;;;;;;;;5037984;28;19932;-80
2022/10/19 16:17:01;;;;;;;;;;;;;;;;;;5037175;28;19964;-78
2022/10/19 16:19:29;;;;;;;;;;;;;;;;;;5036977;28;19972;-79
2022/10/19 16:21:56;;;;;;;;;;;;;;;;;;5036359;28;19972;-79
2022/10/19 16:24:22;;;;;;;;;;;;;;;;;;5035641;28;19968;-79
2022/10/19 16:26:49;;;;;;;;;;;;;;;;;;5035707;28;20028;-80
2022/10/19 16:29:15;;;;;;;;;;;;;;;;;;5036035;28;19932;-82
2022/10/19 16:31:42;;;;;;;;;;;;;;;;;;5034955;28;20016;-79
2022/10/19 16:34:08;;;;;;;;;;;;;;;;;;5035645;28;19931;-80
2022/10/19 16:36:36;;;;;;;;;;;;;;;;;;5035191;28;19925;-82
2022/10/19 16:39:03;;;;;;;;;;;;;;;;;;5035105;28;20011;-80
2022/10/19 16:41:30;;;;;;;;;;;;;;;;;;5034892;28;19972;-79
2022/10/19 16:43:57;;;;;;;;;;;;;;;;;;5034048;28;19925;-80
2022/10/19 16:46:24;;;;;;;;;;;;;;;;;;5034430;28;19931;-79
2022/10/19 16:48:53;;;;;;;;;;;;;;;;;;5036026;28;19964;-80
2022/10/19 16:51:31;;;;;;;;;;;;;;;;;;5034002;28;19974;-80
2022/10/19 16:53:59;;;;;;;;;;;;;;;;;;5034457;28;19925;-78
2022/10/19 16:56:27;;;;;;;;;;;;;;;;;;5034528;28;19948;-80
2022/10/19 16:58:54;;;;;;;;;;;;;;;;;;5033858;28;20356;-80